Time;durP1;ratioP1;P1;durP2;ratioP2;P2;SDS_P1;SDS_P2;PMS_P1;PMS_P2;Temp;Humidity;BMP_temperature;BMP_pressure;BME280_temperature;BME280_humidity;BME280_pressure;Samples;Min_cycle;Max_cycle;Signal;HPM_P1;HPM_P2
2023/05/28 00:00:10;;;;;;;0.20;0.20;;;7.30;99.90;;;;;;5032517;28;20505;-75
2023/05/28 00:02:36;;;;;;;0.20;0.20;;;7.30;99.90;;;;;;5032374;28;20495;-74
2023/05/28 00:05:03;;;;;;;0.20;0.20;;;7.40;99.90;;;;;;5033674;28;20045;-74
2023/05/28 00:07:29;;;;;;;0.20;0.20;;;7.40;99.90;;;;;;5031711;28;20407;-74
2023/05/28 00:09:55;;;;;;;0.10;0.10;;;7.40;99.90;;;;;;5034685;28;20032;-74
2023/05/28 00:12:21;;;;;;;0.20;0.20;;;7.40;99.90;;;;;;5032449;28;20399;-74
2023/05/28 00:14:47;;;;;;;0.20;0.20;;;7.50;99.90;;;;;;5034126;28;20026;-74
2023/05/28 00:17:13;;;;;;;0.28;0.28;;;7.50;99.90;;;;;;5033640;28;20022;-74
2023/05/28 00:19:39;;;;;;;0.20;0.20;;;7.60;99.90;;;;;;5033373;28;20021;-75
2023/05/28 00:22:05;;;;;;;0.10;0.10;;;7.60;99.90;;;;;;5033378;28;20101;-75
2023/05/28 00:24:30;;;;;;;0.20;0.20;;;7.60;99.90;;;;;;5033378;28;20483;-75
2023/05/28 00:26:56;;;;;;;0.20;0.20;;;7.70;99.90;;;;;;5033614;28;20060;-75
2023/05/28 00:29:21;;;;;;;0.10;0.10;;;7.70;99.90;;;;;;5033262;28;20079;-75
2023/05/28 00:31:47;;;;;;;0.25;0.25;;;7.70;99.90;;;;;;5031868;28;20406;-74
2023/05/28 00:34:13;;;;;;;0.25;0.25;;;7.80;99.90;;;;;;5033179;28;20026;-74
2023/05/28 00:36:38;;;;;;;0.20;0.20;;;7.80;99.90;;;;;;5033226;28;20029;-74
2023/05/28 00:39:04;;;;;;;0.20;0.20;;;7.90;99.90;;;;;;5033112;28;20028;-74
2023/05/28 00:41:31;;;;;;;0.22;0.22;;;7.90;99.90;;;;;;5031848;28;20029;-75
2023/05/28 00:43:56;;;;;;;0.10;0.10;;;7.90;99.90;;;;;;5033029;28;20029;-74
2023/05/28 00:46:25;;;;;;;0.30;0.30;;;7.90;99.90;;;;;;5033083;28;20538;-75
2023/05/28 00:48:50;;;;;;;0.22;0.22;;;7.90;99.90;;;;;;5032945;28;20491;-74
2023/05/28 00:51:16;;;;;;;0.25;0.25;;;7.90;99.90;;;;;;5032997;28;20044;-75
2023/05/28 00:53:42;;;;;;;0.20;0.20;;;7.90;99.90;;;;;;5032925;28;20028;-75
2023/05/28 00:56:12;;;;;;;0.30;0.30;;;7.80;99.90;;;;;;5032979;28;20021;-74
2023/05/28 00:58:42;;;;;;;0.20;0.20;;;7.80;99.90;;;;;;5033258;28;20036;-75
2023/05/28 01:01:09;;;;;;;0.20;0.20;;;7.70;99.90;;;;;;5032855;28;20025;-74
2023/05/28 01:03:38;;;;;;;0.10;0.10;;;7.70;99.90;;;;;;5032962;28;20029;-75
2023/05/28 01:06:11;;;;;;;0.20;0.20;;;7.70;99.90;;;;;;5032903;28;20022;-75
2023/05/28 01:08:37;;;;;;;0.20;0.20;;;7.60;99.90;;;;;;5033110;28;20117;-75
2023/05/28 01:11:04;;;;;;;0.20;0.20;;;7.60;99.90;;;;;;5032794;28;20033;-75
2023/05/28 01:13:31;;;;;;;0.20;0.20;;;7.60;99.90;;;;;;5033022;28;20387;-75
2023/05/28 01:15:58;;;;;;;0.17;0.17;;;7.60;99.90;;;;;;5032766;28;20026;-75
2023/05/28 01:18:24;;;;;;;0.20;0.20;;;7.70;99.90;;;;;;5033039;28;20060;-75
2023/05/28 01:20:50;;;;;;;0.20;0.20;;;7.70;99.90;;;;;;5036673;28;20411;-75
2023/05/28 01:23:20;;;;;;;0.20;0.20;;;7.70;99.90;;;;;;5036909;28;20097;-75
2023/05/28 01:25:50;;;;;;;0.28;0.28;;;7.70;99.90;;;;;;5035382;28;20037;-75
2023/05/28 01:28:16;;;;;;;0.20;0.20;;;7.60;99.90;;;;;;5036553;28;20093;-75
2023/05/28 01:30:43;;;;;;;0.20;0.20;;;7.60;99.90;;;;;;5036528;28;20033;-75
2023/05/28 01:33:11;;;;;;;0.20;0.20;;;7.70;99.90;;;;;;5036440;28;20040;-75
2023/05/28 01:35:37;;;;;;;0.20;0.20;;;7.70;99.90;;;;;;5036376;28;20105;-75
2023/05/28 01:38:03;;;;;;;0.20;0.20;;;7.70;99.90;;;;;;5036690;28;20029;-75
2023/05/28 01:40:30;;;;;;;0.30;0.30;;;7.70;99.90;;;;;;5036347;28;20026;-74
2023/05/28 01:42:56;;;;;;;0.30;0.30;;;7.80;99.90;;;;;;5034876;28;20022;-75
2023/05/28 01:45:23;;;;;;;0.30;0.30;;;7.80;99.90;;;;;;5036216;28;20017;-75
2023/05/28 01:47:49;;;;;;;0.25;0.25;;;7.80;99.90;;;;;;5036162;28;20025;-75
2023/05/28 01:50:15;;;;;;;0.20;0.20;;;7.90;99.90;;;;;;5034932;28;20026;-75
2023/05/28 01:52:41;;;;;;;0.20;0.20;;;7.90;99.90;;;;;;5036123;28;20025;-74
2023/05/28 01:55:08;;;;;;;0.20;0.20;;;7.90;99.90;;;;;;5036102;28;20536;-75
2023/05/28 01:57:34;;;;;;;0.20;0.20;;;7.90;99.90;;;;;;5036001;28;20053;-75
2023/05/28 02:00:00;;;;;;;0.20;0.20;;;7.90;99.90;;;;;;5035998;28;20398;-75
2023/05/28 02:02:26;;;;;;;0.30;0.30;;;7.80;99.90;;;;;;5035947;28;20029;-75
2023/05/28 02:04:52;;;;;;;0.10;0.10;;;7.80;99.90;;;;;;5035911;28;20021;-75
2023/05/28 02:07:18;;;;;;;0.20;0.20;;;7.90;99.90;;;;;;5035906;28;20030;-74
2023/05/28 02:09:45;;;;;;;0.30;0.30;;;7.90;99.90;;;;;;5036372;28;20075;-75
2023/05/28 02:12:11;;;;;;;0.20;0.20;;;7.90;99.90;;;;;;5034414;28;20028;-75
2023/05/28 02:14:36;;;;;;;0.20;0.20;;;7.80;99.90;;;;;;5035800;28;20025;-74
2023/05/28 02:17:02;;;;;;;0.20;0.20;;;7.70;99.90;;;;;;5035952;28;20479;-74
2023/05/28 02:19:28;;;;;;;0.10;0.10;;;7.70;99.90;;;;;;5035652;28;20490;-75
2023/05/28 02:21:55;;;;;;;0.30;0.30;;;7.70;99.90;;;;;;5034238;28;20391;-75
2023/05/28 02:24:21;;;;;;;0.20;0.20;;;7.60;99.90;;;;;;5035601;28;20022;-75
2023/05/28 02:26:47;;;;;;;0.20;0.20;;;7.60;99.90;;;;;;5035826;28;20040;-75
2023/05/28 02:29:13;;;;;;;0.20;0.20;;;7.50;99.90;;;;;;5035379;28;20030;-75
2023/05/28 02:31:38;;;;;;;0.20;0.20;;;7.50;99.90;;;;;;5034738;28;20171;-75
2023/05/28 02:34:04;;;;;;;0.20;0.20;;;7.50;99.90;;;;;;5057388;23;20045;-72
2023/05/28 02:36:29;;;;;;;0.20;0.20;;;7.40;99.90;;;;;;5035362;28;20017;-72
2023/05/28 02:38:55;;;;;;;0.20;0.20;;;7.40;99.90;;;;;;5035308;28;20490;-72
2023/05/28 02:41:21;;;;;;;0.20;0.20;;;7.40;99.90;;;;;;5035288;28;20029;-72
2023/05/28 02:43:46;;;;;;;0.20;0.20;;;7.30;99.90;;;;;;5035291;28;20471;-72
2023/05/28 02:46:12;;;;;;;0.20;0.20;;;7.30;99.90;;;;;;5035184;28;20077;-72
2023/05/28 02:48:38;;;;;;;0.20;0.20;;;7.30;99.90;;;;;;5035061;28;20056;-72
2023/05/28 02:51:04;;;;;;;0.20;0.20;;;7.30;99.90;;;;;;5033762;28;20033;-72
2023/05/28 02:53:33;;;;;;;0.30;0.30;;;7.30;99.90;;;;;;5035136;28;20104;-72
2023/05/28 02:55:59;;;;;;;0.20;0.20;;;7.30;99.90;;;;;;5033707;28;20024;-72
2023/05/28 02:58:25;;;;;;;0.30;0.30;;;7.40;99.90;;;;;;5034986;28;20025;-72
2023/05/28 03:00:50;;;;;;;0.22;0.22;;;7.40;99.90;;;;;;5034836;28;20071;-72
2023/05/28 03:03:16;;;;;;;0.15;0.15;;;7.40;99.90;;;;;;5035002;28;20113;-72
2023/05/28 03:05:42;;;;;;;0.20;0.20;;;7.40;99.90;;;;;;5034712;28;20380;-72
2023/05/28 03:08:07;;;;;;;0.20;0.20;;;7.50;99.90;;;;;;5034693;28;20156;-72
2023/05/28 03:10:33;;;;;;;0.20;0.20;;;7.40;99.90;;;;;;5033490;28;20040;-72
2023/05/28 03:12:59;;;;;;;0.20;0.20;;;7.40;99.90;;;;;;5034614;28;20041;-72
2023/05/28 03:15:26;;;;;;;0.20;0.20;;;7.50;99.90;;;;;;5034781;28;20022;-72
2023/05/28 03:17:52;;;;;;;0.20;0.20;;;7.50;99.90;;;;;;5034584;28;20032;-72
2023/05/28 03:20:18;;;;;;;0.20;0.20;;;7.50;99.90;;;;;;5034460;28;20029;-72
2023/05/28 03:22:45;;;;;;;0.10;0.10;;;7.60;99.90;;;;;;5034441;28;20025;-72
2023/05/28 03:25:11;;;;;;;0.20;0.20;;;7.60;99.90;;;;;;5034694;28;20021;-72
2023/05/28 03:27:36;;;;;;;0.20;0.20;;;7.60;99.90;;;;;;5034231;28;20030;-72
2023/05/28 03:30:03;;;;;;;0.20;0.20;;;7.60;99.90;;;;;;5034602;28;20061;-72
2023/05/28 03:32:29;;;;;;;0.20;0.20;;;7.60;99.90;;;;;;5034018;28;20075;-72
2023/05/28 03:34:55;;;;;;;0.20;0.20;;;7.60;99.90;;;;;;5034519;28;20021;-72
2023/05/28 03:37:20;;;;;;;0.20;0.20;;;7.60;99.90;;;;;;5034128;28;20522;-72
2023/05/28 03:39:46;;;;;;;0.20;0.20;;;7.60;99.90;;;;;;5034176;28;20475;-72
2023/05/28 03:42:12;;;;;;;0.20;0.20;;;7.60;99.90;;;;;;5034099;28;20402;-72
2023/05/28 03:44:37;;;;;;;0.20;0.20;;;7.60;99.90;;;;;;5034018;28;20022;-72
2023/05/28 03:47:03;;;;;;;0.20;0.20;;;7.50;99.90;;;;;;5032650;28;20023;-72
2023/05/28 03:49:28;;;;;;;0.20;0.20;;;7.40;99.90;;;;;;5033875;28;20033;-72
2023/05/28 03:51:54;;;;;;;0.20;0.20;;;7.30;99.90;;;;;;5033870;28;20049;-72
2023/05/28 03:54:20;;;;;;;0.20;0.20;;;7.30;99.90;;;;;;5033812;28;20391;-72
2023/05/28 03:56:45;;;;;;;0.20;0.20;;;7.20;99.90;;;;;;5033775;28;20080;-72
2023/05/28 03:59:11;;;;;;;0.30;0.30;;;7.10;99.90;;;;;;5033787;28;20545;-72
2023/05/28 04:01:36;;;;;;;0.20;0.20;;;7.00;99.90;;;;;;5032468;28;20108;-72
2023/05/28 04:04:03;;;;;;;0.20;0.20;;;7.00;99.90;;;;;;5033670;28;20032;-72
2023/05/28 04:06:28;;;;;;;0.20;0.20;;;6.90;99.90;;;;;;5032452;28;20075;-72
2023/05/28 04:08:55;;;;;;;0.20;0.20;;;6.90;99.90;;;;;;5033533;28;20116;-72
2023/05/28 04:11:24;;;;;;;0.30;0.30;;;6.80;99.90;;;;;;5033648;28;20072;-72
2023/05/28 04:13:53;;;;;;;0.20;0.20;;;6.80;99.90;;;;;;5032170;28;20017;-72
2023/05/28 04:16:22;;;;;;;0.20;0.20;;;6.80;99.90;;;;;;5032896;28;20104;-72
2023/05/28 04:18:48;;;;;;;0.20;0.20;;;6.70;99.90;;;;;;5033416;28;20025;-72
2023/05/28 04:21:14;;;;;;;0.30;0.30;;;6.70;99.90;;;;;;5033441;28;20031;-72
2023/05/28 04:23:39;;;;;;;0.20;0.20;;;6.70;99.90;;;;;;5033312;28;20026;-72
2023/05/28 04:26:06;;;;;;;0.30;0.30;;;6.70;99.90;;;;;;5033385;28;20069;-72
2023/05/28 04:28:33;;;;;;;0.20;0.20;;;6.70;99.90;;;;;;5033234;28;20025;-72
2023/05/28 04:31:01;;;;;;;0.20;0.20;;;6.80;99.90;;;;;;5033320;28;20072;-72
2023/05/28 04:33:28;;;;;;;0.20;0.20;;;6.80;99.90;;;;;;5033076;28;20120;-72
2023/05/28 04:35:55;;;;;;;0.30;0.30;;;6.90;99.90;;;;;;5033500;28;20049;-72
2023/05/28 04:38:21;;;;;;;0.20;0.20;;;7.00;99.90;;;;;;5033201;28;20035;-72
2023/05/28 04:40:46;;;;;;;0.20;0.20;;;7.00;99.90;;;;;;5033180;28;20097;-72
2023/05/28 04:43:12;;;;;;;0.20;0.20;;;7.10;99.90;;;;;;5032998;28;20494;-72
2023/05/28 04:45:37;;;;;;;0.20;0.20;;;7.20;99.90;;;;;;5033373;28;20032;-72
2023/05/28 04:48:04;;;;;;;0.30;0.30;;;7.30;99.90;;;;;;5032952;28;20380;-72
2023/05/28 04:50:30;;;;;;;0.20;0.20;;;7.50;99.90;;;;;;5033070;28;20475;-72
2023/05/28 04:52:55;;;;;;;0.20;0.20;;;7.60;99.90;;;;;;5032994;28;20033;-72
2023/05/28 04:55:22;;;;;;;0.30;0.30;;;7.70;99.90;;;;;;5032706;28;20017;-72
2023/05/28 04:57:47;;;;;;;0.20;0.20;;;7.90;99.90;;;;;;5033030;28;20026;-72
2023/05/28 05:00:13;;;;;;;0.28;0.28;;;8.00;99.90;;;;;;5033015;28;20078;-72
2023/05/28 05:02:42;;;;;;;0.20;0.20;;;8.20;99.90;;;;;;5031662;28;20030;-72
2023/05/28 05:05:08;;;;;;;0.22;0.22;;;8.30;99.90;;;;;;5033152;28;20028;-72
2023/05/28 05:07:38;;;;;;;0.20;0.20;;;8.40;99.90;;;;;;5032795;28;20026;-72
2023/05/28 05:10:10;;;;;;;0.17;0.17;;;8.70;99.90;;;;;;5032969;28;20554;-72
2023/05/28 05:12:36;;;;;;;0.30;0.30;;;8.80;99.90;;;;;;5032996;28;20068;-72
2023/05/28 05:15:04;;;;;;;0.20;0.20;;;9.00;99.90;;;;;;5032821;28;20018;-72
2023/05/28 05:17:30;;;;;;;0.20;0.20;;;9.20;99.90;;;;;;5032846;28;20020;-72
2023/05/28 05:19:56;;;;;;;0.20;0.20;;;9.40;99.90;;;;;;5032763;28;20025;-72
2023/05/28 05:22:22;;;;;;;0.20;0.20;;;9.50;99.90;;;;;;5031426;28;20026;-72
2023/05/28 05:24:48;;;;;;;0.30;0.30;;;9.70;99.90;;;;;;5033090;28;20030;-72
2023/05/28 05:27:14;;;;;;;0.25;0.25;;;9.90;99.90;;;;;;5031440;28;20488;-72
2023/05/28 05:29:39;;;;;;;0.20;0.20;;;10.10;99.90;;;;;;5032691;28;20105;-72
2023/05/28 05:32:06;;;;;;;0.17;0.17;;;10.20;99.90;;;;;;5031392;28;20057;-72
2023/05/28 05:34:32;;;;;;;0.20;0.20;;;10.40;99.90;;;;;;5032667;28;20200;-72
2023/05/28 05:36:58;;;;;;;0.17;0.17;;;10.50;99.90;;;;;;5032634;28;20017;-72
2023/05/28 05:39:24;;;;;;;0.20;0.20;;;10.60;99.90;;;;;;5031367;28;20399;-72
2023/05/28 05:41:50;;;;;;;0.20;0.20;;;10.70;99.90;;;;;;5032581;28;20021;-72
2023/05/28 05:44:15;;;;;;;0.20;0.20;;;10.90;99.90;;;;;;5032486;28;20060;-72
2023/05/28 05:46:41;;;;;;;0.20;0.20;;;11.00;99.90;;;;;;5032459;28;20026;-72
2023/05/28 05:49:06;;;;;;;0.30;0.30;;;11.10;99.90;;;;;;5024785;28;20030;-72
2023/05/28 05:51:32;;;;;;;0.20;0.20;;;11.30;99.90;;;;;;5018599;28;20029;-72
2023/05/28 05:53:58;;;;;;;0.22;0.22;;;11.40;99.90;;;;;;5030310;28;20017;-72
2023/05/28 05:56:25;;;;;;;0.20;0.20;;;11.60;99.90;;;;;;5032143;28;20013;-72
2023/05/28 05:58:51;;;;;;;0.20;0.20;;;11.80;99.90;;;;;;5032279;28;20029;-72
2023/05/28 06:01:16;;;;;;;0.30;0.30;;;12.10;99.90;;;;;;5032325;28;20506;-72
2023/05/28 06:03:42;;;;;;;0.20;0.20;;;12.30;99.90;;;;;;5021001;28;20053;-72
2023/05/28 06:06:09;;;;;;;0.20;0.20;;;12.50;99.90;;;;;;5014081;28;20034;-73
2023/05/28 06:08:35;;;;;;;0.20;0.20;;;12.60;99.90;;;;;;5032734;28;20033;-72
2023/05/28 06:11:02;;;;;;;0.20;0.20;;;12.70;99.90;;;;;;5019148;28;20056;-72
2023/05/28 06:13:27;;;;;;;0.20;0.20;;;12.80;99.90;;;;;;5015618;28;20018;-73
2023/05/28 06:15:53;;;;;;;0.10;0.10;;;12.90;99.90;;;;;;5016118;28;20430;-72
2023/05/28 06:18:18;;;;;;;0.22;0.22;;;13.00;99.90;;;;;;5015820;28;20399;-72
2023/05/28 06:20:45;;;;;;;0.20;0.20;;;13.10;99.90;;;;;;5031720;28;20061;-73
2023/05/28 06:23:10;;;;;;;0.20;0.20;;;13.30;99.90;;;;;;5030058;28;20523;-72
2023/05/28 06:25:37;;;;;;;0.20;0.20;;;13.30;99.90;;;;;;5015715;28;20068;-72
2023/05/28 06:28:02;;;;;;;0.20;0.20;;;13.40;99.90;;;;;;5015448;28;20076;-72
2023/05/28 06:30:28;;;;;;;0.20;0.20;;;13.30;99.90;;;;;;5015698;28;20415;-72
2023/05/28 06:32:53;;;;;;;0.20;0.20;;;13.40;99.90;;;;;;5015524;28;20037;-72
2023/05/28 06:35:19;;;;;;;0.20;0.20;;;13.60;99.90;;;;;;5015752;28;20021;-72
2023/05/28 06:37:45;;;;;;;0.13;0.13;;;13.60;99.90;;;;;;5015696;28;20026;-72
2023/05/28 06:40:10;;;;;;;0.20;0.20;;;13.60;99.90;;;;;;5015329;28;20033;-72
2023/05/28 06:42:38;;;;;;;0.20;0.20;;;13.80;99.90;;;;;;5015344;28;20426;-72
2023/05/28 06:45:04;;;;;;;0.20;0.20;;;14.00;99.90;;;;;;5015399;28;20395;-72
2023/05/28 06:47:30;;;;;;;0.20;0.20;;;14.00;99.90;;;;;;5015290;28;20046;-72
2023/05/28 06:49:55;;;;;;;0.20;0.20;;;14.10;99.90;;;;;;5015273;28;20018;-72
2023/05/28 06:52:22;;;;;;;0.20;0.20;;;14.30;99.90;;;;;;5013867;28;20025;-72
2023/05/28 06:54:47;;;;;;;0.20;0.20;;;14.50;99.90;;;;;;5025657;28;20033;-72
2023/05/28 06:57:13;;;;;;;0.20;0.20;;;14.70;99.90;;;;;;5034682;28;20142;-72
2023/05/28 06:59:38;;;;;;;0.20;0.20;;;14.80;99.90;;;;;;5034443;28;20079;-72
2023/05/28 07:02:05;;;;;;;0.10;0.10;;;14.90;99.90;;;;;;5034544;28;20025;-72
2023/05/28 07:04:30;;;;;;;0.20;0.20;;;15.10;99.90;;;;;;5034505;28;20017;-72
2023/05/28 07:06:56;;;;;;;0.10;0.10;;;15.20;99.90;;;;;;5033217;28;20557;-72
2023/05/28 07:09:21;;;;;;;0.17;0.17;;;15.20;99.90;;;;;;5034145;28;20486;-72
2023/05/28 07:11:47;;;;;;;0.20;0.20;;;15.30;99.90;;;;;;5034713;28;20025;-72
2023/05/28 07:14:12;;;;;;;0.10;0.10;;;15.40;99.90;;;;;;5034518;28;20487;-72
2023/05/28 07:16:38;;;;;;;0.10;0.10;;;15.50;99.90;;;;;;5032695;28;20056;-72
2023/05/28 07:19:04;;;;;;;0.20;0.20;;;15.50;99.90;;;;;;5032231;28;20037;-72
2023/05/28 07:21:29;;;;;;;0.20;0.20;;;15.50;99.90;;;;;;5034318;28;20029;-72
2023/05/28 07:23:55;;;;;;;0.15;0.15;;;15.50;99.90;;;;;;5029971;28;20022;-71
2023/05/28 07:26:21;;;;;;;0.10;0.10;;;15.60;99.90;;;;;;5014674;28;20438;-73
2023/05/28 07:28:47;;;;;;;0.10;0.10;;;15.60;99.90;;;;;;5014032;28;20050;-72
2023/05/28 07:31:12;;;;;;;0.10;0.10;;;15.90;99.90;;;;;;5033694;28;20103;-72
2023/05/28 07:33:39;;;;;;;0.20;0.20;;;16.00;99.90;;;;;;5033562;28;20080;-72
2023/05/28 07:36:04;;;;;;;0.10;0.10;;;16.10;99.90;;;;;;5023388;28;20033;-72
2023/05/28 07:38:30;;;;;;;0.20;0.20;;;16.20;99.90;;;;;;5014507;28;20030;-74
2023/05/28 07:40:55;;;;;;;0.20;0.20;;;16.40;99.90;;;;;;5013767;28;20040;-72
2023/05/28 07:43:21;;;;;;;0.20;0.20;;;16.40;99.90;;;;;;5016170;28;20029;-72
2023/05/28 07:45:46;;;;;;;0.10;0.10;;;16.60;99.90;;;;;;5014067;28;20049;-72
2023/05/28 07:48:12;;;;;;;0.20;0.20;;;16.70;99.90;;;;;;5016195;28;20033;-72
2023/05/28 07:50:38;;;;;;;0.10;0.10;;;16.90;99.90;;;;;;5034074;28;20061;-72
2023/05/28 07:53:04;;;;;;;0.20;0.20;;;16.90;99.90;;;;;;5033365;28;20045;-72
2023/05/28 07:55:30;;;;;;;0.20;0.20;;;16.90;99.90;;;;;;5033584;28;20068;-72
2023/05/28 07:57:58;;;;;;;0.10;0.10;;;16.90;99.90;;;;;;5033472;28;20398;-72
2023/05/28 08:00:25;;;;;;;0.20;0.20;;;17.00;99.90;;;;;;5033516;28;20017;-72
2023/05/28 08:02:50;;;;;;;0.20;0.20;;;16.90;99.90;;;;;;5033304;28;20152;-72
2023/05/28 08:05:16;;;;;;;0.15;0.15;;;16.80;99.90;;;;;;5032115;28;20109;-72
2023/05/28 08:07:41;;;;;;;0.20;0.20;;;16.90;99.90;;;;;;5032140;28;20534;-72
2023/05/28 08:10:08;;;;;;;0.20;0.20;;;16.90;99.90;;;;;;5030978;28;20471;-72
2023/05/28 08:12:33;;;;;;;0.13;0.13;;;17.10;99.90;;;;;;5032943;28;20026;-72
2023/05/28 08:14:59;;;;;;;0.10;0.10;;;17.30;99.90;;;;;;5032886;28;20025;-72
2023/05/28 08:17:24;;;;;;;0.10;0.10;;;17.60;99.90;;;;;;5015063;28;20022;-72
2023/05/28 08:19:50;;;;;;;0.10;0.10;;;18.00;99.90;;;;;;5013242;28;20505;-72
2023/05/28 08:22:16;;;;;;;0.15;0.15;;;18.40;99.90;;;;;;5013517;28;20076;-72
2023/05/28 08:24:41;;;;;;;0.20;0.20;;;18.50;99.90;;;;;;5013191;28;20026;-74
2023/05/28 08:27:07;;;;;;;0.15;0.15;;;18.60;99.90;;;;;;5017536;28;20100;-72
2023/05/28 08:29:32;;;;;;;0.10;0.10;;;18.80;99.90;;;;;;5012658;28;20095;-73
2023/05/28 08:31:59;;;;;;;0.17;0.17;;;18.90;99.90;;;;;;5013267;28;20046;-73
2023/05/28 08:34:26;;;;;;;0.10;0.10;;;18.60;99.90;;;;;;5051266;23;20138;-76
2023/05/28 08:36:52;;;;;;;0.10;0.10;;;18.50;99.90;;;;;;5032904;28;20048;-75
2023/05/28 08:39:17;;;;;;;0.10;0.10;;;18.30;99.90;;;;;;5031775;28;20037;-76
2023/05/28 08:41:43;;;;;;;0.20;0.20;;;18.20;99.90;;;;;;5033067;28;20506;-78
2023/05/28 08:44:09;;;;;;;0.10;0.10;;;18.40;99.90;;;;;;5032674;28;20022;-77
2023/05/28 08:46:36;;;;;;;0.20;0.20;;;18.50;99.90;;;;;;5031830;28;20390;-76
2023/05/28 08:49:02;;;;;;;0.15;0.15;;;18.80;99.90;;;;;;5030565;28;20037;-75
2023/05/28 08:51:32;;;;;;;0.20;0.20;;;19.20;99.90;;;;;;5032761;28;20017;-74
2023/05/28 08:54:00;;;;;;;0.10;0.10;;;19.40;99.90;;;;;;5031272;28;20025;-74
2023/05/28 08:56:26;;;;;;;0.10;0.10;;;19.30;99.90;;;;;;5031615;28;20403;-75
2023/05/28 08:58:52;;;;;;;0.10;0.10;;;19.50;99.90;;;;;;5032440;28;20041;-75
2023/05/28 09:01:19;;;;;;;0.10;0.10;;;19.60;99.90;;;;;;5028477;28;20440;-75
2023/05/28 09:03:45;;;;;;;0.10;0.10;;;19.70;99.90;;;;;;5012570;28;20026;-76
2023/05/28 09:06:12;;;;;;;0.10;0.10;;;19.50;99.90;;;;;;5019815;28;20037;-76
2023/05/28 09:08:38;;;;;;;0.10;0.10;;;19.60;99.90;;;;;;5013012;28;20032;-76
2023/05/28 09:11:11;;;;;;;0.10;0.10;;;19.30;99.90;;;;;;5012809;28;20022;-76
2023/05/28 09:13:41;;;;;;;0.10;0.10;;;19.50;99.90;;;;;;5013312;28;20403;-76
2023/05/28 09:16:06;;;;;;;0.10;0.10;;;19.60;99.90;;;;;;5012782;28;20391;-75
2023/05/28 09:18:32;;;;;;;0.10;0.10;;;20.00;99.90;;;;;;5032849;28;20030;-76
2023/05/28 09:21:06;;;;;;;0.10;0.10;;;19.90;99.90;;;;;;5032339;28;20028;-75
2023/05/28 09:23:32;;;;;;;0.10;0.10;;;20.10;99.90;;;;;;5033021;28;20025;-76
2023/05/28 09:26:00;;;;;;;0.10;0.10;;;20.00;99.90;;;;;;5031042;28;20041;-77
2023/05/28 09:28:27;;;;;;;0.10;0.10;;;20.40;99.90;;;;;;5032498;28;20436;-76
2023/05/28 09:31:01;;;;;;;0.10;0.10;;;20.40;99.90;;;;;;5032277;28;20026;-77
2023/05/28 09:33:27;;;;;;;0.10;0.10;;;20.50;99.90;;;;;;5032302;28;20427;-76
2023/05/28 09:36:02;;;;;;;0.10;0.10;;;20.40;99.90;;;;;;5032199;28;20020;-76
2023/05/28 09:38:39;;;;;;;0.10;0.10;;;20.60;99.90;;;;;;5032411;28;20025;-76
2023/05/28 09:41:05;;;;;;;0.10;0.10;;;20.60;99.90;;;;;;5035645;28;20045;-76
2023/05/28 09:43:30;;;;;;;0.10;0.10;;;20.20;99.90;;;;;;5035929;28;20060;-77
2023/05/28 09:46:09;;;;;;;0.10;0.10;;;19.50;99.90;;;;;;5035068;28;20026;-77
2023/05/28 09:48:35;;;;;;;0.10;0.10;;;19.30;99.90;;;;;;5036033;28;20029;-76
2023/05/28 09:51:04;;;;;;;0.10;0.10;;;19.50;99.90;;;;;;5036017;28;20025;-76
2023/05/28 09:53:34;;;;;;;0.10;0.10;;;20.00;99.90;;;;;;5036060;28;20505;-76
2023/05/28 09:56:02;;;;;;;0.00;0.00;;;20.30;99.90;;;;;;5036061;28;20048;-76
2023/05/28 09:58:34;;;;;;;0.10;0.10;;;20.70;99.90;;;;;;5036009;28;20021;-76
2023/05/28 10:01:02;;;;;;;0.10;0.10;;;21.10;99.90;;;;;;5035822;28;20075;-76
2023/05/28 10:03:38;;;;;;;0.10;0.10;;;21.50;99.90;;;;;;5027962;28;20511;-77
2023/05/28 10:06:10;;;;;;;0.10;0.10;;;21.70;99.90;;;;;;5030725;28;20029;-77
2023/05/28 10:08:39;;;;;;;0.10;0.10;;;21.00;99.90;;;;;;5035611;28;20025;-77
2023/05/28 10:11:13;;;;;;;0.08;0.08;;;20.90;99.90;;;;;;5035564;28;20340;-77
2023/05/28 10:13:40;;;;;;;0.10;0.10;;;21.00;99.90;;;;;;5034139;28;20398;-77
2023/05/28 10:16:06;;;;;;;0.00;0.00;;;21.30;99.90;;;;;;5035788;28;20026;-76
2023/05/28 10:18:32;;;;;;;0.10;0.10;;;21.20;99.90;;;;;;5035363;28;20022;-77
2023/05/28 10:20:58;;;;;;;0.10;0.10;;;20.50;99.90;;;;;;5021263;28;20407;-77
2023/05/28 10:23:24;;;;;;;0.10;0.10;;;20.50;99.90;;;;;;5026012;28;20052;-77
2023/05/28 10:25:50;;;;;;;0.10;0.10;;;21.00;99.90;;;;;;5035202;28;20025;-77
2023/05/28 10:28:16;;;;;;;0.10;0.10;;;21.50;99.90;;;;;;5028084;28;20034;-76
2023/05/28 10:30:42;;;;;;;0.10;0.10;;;21.70;99.90;;;;;;5015738;28;20018;-77
2023/05/28 10:33:10;;;;;;;0.00;0.00;;;21.10;99.90;;;;;;5013780;28;20033;-77
2023/05/28 10:35:49;;;;;;;0.00;0.00;;;21.20;99.90;;;;;;5015534;28;20026;-77
2023/05/28 10:38:15;;;;;;;0.10;0.10;;;20.90;99.90;;;;;;5015379;28;20399;-77
2023/05/28 10:40:40;;;;;;;0.10;0.10;;;21.00;99.90;;;;;;5015579;28;20026;-77
2023/05/28 10:43:37;;;;;;;0.10;0.10;;;21.20;99.90;;;;;;5014925;28;20447;-77
2023/05/28 10:46:04;;;;;;;0.17;0.17;;;21.20;99.90;;;;;;5013959;28;20118;-77
2023/05/28 10:48:32;;;;;;;0.10;0.10;;;21.20;99.90;;;;;;5016002;28;20061;-78
2023/05/28 10:50:58;;;;;;;0.00;0.00;;;21.30;99.90;;;;;;5035870;28;20025;-77
2023/05/28 10:53:26;;;;;;;0.10;0.10;;;21.00;99.90;;;;;;5034434;28;20024;-78
2023/05/28 10:55:55;;;;;;;0.10;0.10;;;20.20;99.90;;;;;;5033778;28;20460;-77
2023/05/28 10:58:34;;;;;;;0.10;0.10;;;20.20;99.90;;;;;;5033389;28;20537;-78
2023/05/28 11:01:23;;;;;;;0.10;0.10;;;20.40;99.90;;;;;;5034542;28;20022;-78
2023/05/28 11:03:54;;;;;;;0.10;0.10;;;20.70;99.90;;;;;;5034482;28;20053;-78
2023/05/28 11:06:20;;;;;;;0.10;0.10;;;21.30;99.90;;;;;;5033537;28;20112;-78
2023/05/28 11:08:48;;;;;;;0.10;0.10;;;21.40;99.90;;;;;;5034609;28;20072;-78
2023/05/28 11:11:15;;;;;;;0.10;0.10;;;21.60;99.90;;;;;;5034874;28;20017;-78
2023/05/28 11:13:48;;;;;;;0.10;0.10;;;21.70;99.90;;;;;;5034380;28;20028;-78
2023/05/28 11:16:18;;;;;;;0.10;0.10;;;21.40;99.90;;;;;;5034205;28;20061;-78
2023/05/28 11:19:03;;;;;;;0.10;0.10;;;21.40;99.90;;;;;;5033412;28;20060;-77
2023/05/28 11:21:28;;;;;;;0.10;0.10;;;21.70;99.90;;;;;;5034412;28;20076;-78
2023/05/28 11:24:02;;;;;;;0.10;0.10;;;22.00;99.90;;;;;;5034449;28;20030;-78
2023/05/28 11:26:27;;;;;;;0.00;0.00;;;22.10;99.90;;;;;;5034532;28;20499;-78
2023/05/28 11:28:53;;;;;;;0.10;0.10;;;22.30;99.90;;;;;;5034507;28;20037;-78
2023/05/28 11:31:19;;;;;;;0.10;0.10;;;22.20;99.90;;;;;;5033907;28;20024;-78
2023/05/28 11:33:48;;;;;;;0.10;0.10;;;22.50;99.90;;;;;;5034109;28;20156;-78
2023/05/28 11:36:14;;;;;;;0.10;0.10;;;22.70;99.90;;;;;;5032488;28;20025;-78
2023/05/28 11:38:40;;;;;;;0.08;0.08;;;22.80;99.90;;;;;;5033869;28;20025;-78
2023/05/28 11:41:06;;;;;;;0.00;0.00;;;22.70;99.90;;;;;;5032895;28;20079;-79
2023/05/28 11:43:31;;;;;;;0.10;0.10;;;22.80;99.90;;;;;;5034198;28;20035;-78
2023/05/28 11:45:59;;;;;;;0.00;0.00;;;22.70;99.90;;;;;;5034402;28;20032;-78
2023/05/28 11:48:27;;;;;;;0.10;0.10;;;22.20;99.90;;;;;;5034009;28;20031;-77
2023/05/28 11:51:01;;;;;;;0.10;0.10;;;21.20;99.90;;;;;;5034409;28;20101;-77
2023/05/28 11:53:43;;;;;;;0.10;0.10;;;21.10;99.90;;;;;;5034181;28;20022;-77
2023/05/28 11:56:10;;;;;;;0.10;0.10;;;21.40;99.90;;;;;;5034052;28;20021;-77
2023/05/28 11:58:41;;;;;;;0.10;0.10;;;21.70;99.90;;;;;;5034481;28;20027;-77
2023/05/28 12:01:07;;;;;;;0.10;0.10;;;22.00;99.90;;;;;;5033324;28;20128;-77
2023/05/28 12:03:33;;;;;;;0.10;0.10;;;22.20;99.90;;;;;;5039102;28;20470;-78
2023/05/28 12:05:59;;;;;;;0.10;0.10;;;22.40;99.90;;;;;;5036920;28;20531;-77
2023/05/28 12:08:26;;;;;;;0.10;0.10;;;22.50;99.90;;;;;;5036943;28;20032;-77
2023/05/28 12:10:52;;;;;;;0.00;0.00;;;22.70;99.90;;;;;;5035086;28;20052;-78
2023/05/28 12:13:17;;;;;;;0.10;0.10;;;22.70;99.90;;;;;;5035071;28;20515;-78
2023/05/28 12:15:43;;;;;;;0.00;0.00;;;23.00;99.90;;;;;;5038608;28;20052;-78
2023/05/28 12:18:09;;;;;;;0.10;0.10;;;23.30;99.90;;;;;;5038206;28;20029;-78
2023/05/28 12:20:39;;;;;;;0.10;0.10;;;23.80;99.90;;;;;;5037520;28;20029;-78
2023/05/28 12:23:09;;;;;;;0.00;0.00;;;23.40;99.90;;;;;;5036678;28;20522;-77
2023/05/28 12:25:43;;;;;;;0.10;0.10;;;23.60;99.90;;;;;;5037956;28;20104;-78
2023/05/28 12:28:13;;;;;;;0.00;0.00;;;23.20;99.90;;;;;;5037314;28;20045;-78
2023/05/28 12:30:41;;;;;;;0.10;0.10;;;23.30;99.90;;;;;;5036217;28;20467;-76
2023/05/28 12:33:06;;;;;;;0.00;0.00;;;23.70;99.90;;;;;;5039417;28;20029;-78
2023/05/28 12:35:32;;;;;;;0.10;0.10;;;24.10;99.90;;;;;;5033660;28;20044;-77
2023/05/28 12:37:57;;;;;;;0.00;0.00;;;23.70;99.90;;;;;;5034046;28;20053;-77
2023/05/28 12:40:23;;;;;;;0.00;0.00;;;23.30;99.90;;;;;;5032008;28;20021;-77
2023/05/28 12:42:48;;;;;;;0.00;0.00;;;23.70;99.90;;;;;;5033739;28;20034;-77
2023/05/28 12:45:14;;;;;;;0.00;0.00;;;23.80;99.90;;;;;;5032726;28;20029;-78
2023/05/28 12:47:40;;;;;;;0.00;0.00;;;24.10;99.90;;;;;;5032410;28;20026;-77